Aviation Digital Data Service (ADDS)

Output produced by METARs form (0847 UTC 24 March 2019)
found at http://www.aviationweather.gov/metar/data/
 
METAR text: KSAN 240819Z 31004KT 10SM OVC014 15/12 A3017 RMK AO2 RAB02E11 P0000 T01500117
Conditions at: KSAN (SAN DIEGO , CA, US) observed 0819 UTC 24 March 2019
Temperature: 15.0°C (59°F)
Dewpoint: 11.7°C (53°F) [RH = 81%]
Pressure (altimeter): 30.17 inches Hg (1021.8 mb)
Winds: from the NW (310 degrees) at 5 MPH (4 knots; 2.1 m/s)
Visibility: 10 or more miles (16+ km)
Ceiling: 1400 feet AGL
Clouds: overcast cloud deck at 1400 feet AGL
Weather: no significant weather observed at this time

METAR text: KSAN 240751Z 00000KT 10SM BKN017 BKN032 15/11 A3017 RMK AO2 SLP214 T01500106 401890117
Conditions at: KSAN (SAN DIEGO , CA, US) observed 0751 UTC 24 March 2019
Temperature: 15.0°C (59°F)
Dewpoint: 10.6°C (51°F) [RH = 75%]
Pressure (altimeter): 30.17 inches Hg (1021.8 mb)
[Sea-level pressure: 1021.4 mb]
Winds: calm
Visibility: 10 or more miles (16+ km)
Ceiling: 1700 feet AGL
Clouds: broken clouds at 1700 feet AGL
broken clouds at 3200 feet AGL
Weather: no significant weather observed at this time

METAR text: KSAN 240724Z 10004KT 10SM BKN017 BKN032 15/11 A3017 RMK AO2 T01500106
Conditions at: KSAN (SAN DIEGO , CA, US) observed 0724 UTC 24 March 2019
Temperature: 15.0°C (59°F)
Dewpoint: 10.6°C (51°F) [RH = 75%]
Pressure (altimeter): 30.17 inches Hg (1021.8 mb)
Winds: from the E (100 degrees) at 5 MPH (4 knots; 2.1 m/s)
Visibility: 10 or more miles (16+ km)
Ceiling: 1700 feet AGL
Clouds: broken clouds at 1700 feet AGL
broken clouds at 3200 feet AGL
Weather: no significant weather observed at this time

METAR text: KSAN 240651Z 08004KT 10SM BKN032 16/11 A3017 RMK AO2 SLP215 T01560111
Conditions at: KSAN (SAN DIEGO , CA, US) observed 0651 UTC 24 March 2019
Temperature: 15.6°C (60°F)
Dewpoint: 11.1°C (52°F) [RH = 75%]
Pressure (altimeter): 30.17 inches Hg (1021.8 mb)
[Sea-level pressure: 1021.5 mb]
Winds: from the E (80 degrees) at 5 MPH (4 knots; 2.1 m/s)
Visibility: 10 or more miles (16+ km)
Ceiling: 3200 feet AGL
Clouds: broken clouds at 3200 feet AGL
Weather: no significant weather observed at this time

METAR text: KSAN 240558Z 00000KT 10SM FEW019 SCT029 16/11 A3018 RMK AO2 T01560111
Conditions at: KSAN (SAN DIEGO , CA, US) observed 0558 UTC 24 March 2019
Temperature: 15.6°C (60°F)
Dewpoint: 11.1°C (52°F) [RH = 75%]
Pressure (altimeter): 30.18 inches Hg (1022.1 mb)
Winds: calm
Visibility: 10 or more miles (16+ km)
Ceiling: at least 12,000 feet AGL
Clouds: few clouds at 1900 feet AGL
scattered clouds at 2900 feet AGL
Weather: no significant weather observed at this time

METAR text: KSAN 240551Z 00000KT 10SM FEW019 BKN029 16/11 A3018 RMK AO2 SLP218 T01560111 10172 20156 50004
Conditions at: KSAN (SAN DIEGO , CA, US) observed 0551 UTC 24 March 2019
Temperature: 15.6°C (60°F)
Dewpoint: 11.1°C (52°F) [RH = 75%]
Pressure (altimeter): 30.18 inches Hg (1022.1 mb)
[Sea-level pressure: 1021.8 mb]
Winds: calm
Visibility: 10 or more miles (16+ km)
Ceiling: 2900 feet AGL
Clouds: few clouds at 1900 feet AGL
broken clouds at 2900 feet AGL
Weather: no significant weather observed at this time

METAR text: KSAN 240451Z 31005KT 10SM SCT014 BKN025 16/11 A3019 RMK AO2 SLP222 T01560111
Conditions at: KSAN (SAN DIEGO , CA, US) observed 0451 UTC 24 March 2019
Temperature: 15.6°C (60°F)
Dewpoint: 11.1°C (52°F) [RH = 75%]
Pressure (altimeter): 30.19 inches Hg (1022.4 mb)
[Sea-level pressure: 1022.2 mb]
Winds: from the NW (310 degrees) at 6 MPH (5 knots; 2.6 m/s)
Visibility: 10 or more miles (16+ km)
Ceiling: 2500 feet AGL
Clouds: scattered clouds at 1400 feet AGL
broken clouds at 2500 feet AGL
Weather: no significant weather observed at this time

METAR text: KSAN 240406Z 32006KT 10SM BKN015 BKN025 BKN250 16/11 A3019 RMK AO2 T01560111
Conditions at: KSAN (SAN DIEGO , CA, US) observed 0406 UTC 24 March 2019
Temperature: 15.6°C (60°F)
Dewpoint: 11.1°C (52°F) [RH = 75%]
Pressure (altimeter): 30.19 inches Hg (1022.4 mb)
Winds: from the NW (320 degrees) at 7 MPH (6 knots; 3.1 m/s)
Visibility: 10 or more miles (16+ km)
Ceiling: 1500 feet AGL
Clouds: broken clouds at 1500 feet AGL
broken clouds at 2500 feet AGL
broken clouds at 25000 feet AGL
Weather: no significant weather observed at this time

METAR text: KSAN 240351Z 33006KT 10SM BKN014 BKN024 BKN250 16/12 A3019 RMK AO2 SLP221 T01610117
Conditions at: KSAN (SAN DIEGO , CA, US) observed 0351 UTC 24 March 2019
Temperature: 16.1°C (61°F)
Dewpoint: 11.7°C (53°F) [RH = 75%]
Pressure (altimeter): 30.19 inches Hg (1022.4 mb)
[Sea-level pressure: 1022.1 mb]
Winds: from the NNW (330 degrees) at 7 MPH (6 knots; 3.1 m/s)
Visibility: 10 or more miles (16+ km)
Ceiling: 1400 feet AGL
Clouds: broken clouds at 1400 feet AGL
broken clouds at 2400 feet AGL
broken clouds at 25000 feet AGL
Weather: no significant weather observed at this time

METAR text: KSAN 240310Z 32005KT 10SM BKN014 BKN250 16/11 A3017 RMK AO2 T01560111
Conditions at: KSAN (SAN DIEGO , CA, US) observed 0310 UTC 24 March 2019
Temperature: 15.6°C (60°F)
Dewpoint: 11.1°C (52°F) [RH = 75%]
Pressure (altimeter): 30.17 inches Hg (1021.8 mb)
Winds: from the NW (320 degrees) at 6 MPH (5 knots; 2.6 m/s)
Visibility: 10 or more miles (16+ km)
Ceiling: 1400 feet AGL
Clouds: broken clouds at 1400 feet AGL
broken clouds at 25000 feet AGL
Weather: no significant weather observed at this time

METAR text: KSAN 240251Z 33006KT 10SM SCT015 BKN250 16/11 A3017 RMK AO2 SLP214 T01560111 53006
Conditions at: KSAN (SAN DIEGO , CA, US) observed 0251 UTC 24 March 2019
Temperature: 15.6°C (60°F)
Dewpoint: 11.1°C (52°F) [RH = 75%]
Pressure (altimeter): 30.17 inches Hg (1021.8 mb)
[Sea-level pressure: 1021.4 mb]
Winds: from the NNW (330 degrees) at 7 MPH (6 knots; 3.1 m/s)
Visibility: 10 or more miles (16+ km)
Ceiling: 25000 feet AGL
Clouds: scattered clouds at 1500 feet AGL
broken clouds at 25000 feet AGL
Weather: no significant weather observed at this time

METAR text: KSAN 240151Z 30009KT 10SM SCT016 BKN200 16/11 A3016 RMK AO2 SLP212 T01610106
Conditions at: KSAN (SAN DIEGO , CA, US) observed 0151 UTC 24 March 2019
Temperature: 16.1°C (61°F)
Dewpoint: 10.6°C (51°F) [RH = 70%]
Pressure (altimeter): 30.16 inches Hg (1021.4 mb)
[Sea-level pressure: 1021.2 mb]
Winds: from the WNW (300 degrees) at 10 MPH (9 knots; 4.6 m/s)
Visibility: 10 or more miles (16+ km)
Ceiling: 20000 feet AGL
Clouds: scattered clouds at 1600 feet AGL
broken clouds at 20000 feet AGL
Weather: no significant weather observed at this time

METAR text: KSAN 240051Z 31007KT 10SM SCT016 BKN200 17/09 A3014 RMK AO2 SLP207 T01670094
Conditions at: KSAN (SAN DIEGO , CA, US) observed 0051 UTC 24 March 2019
Temperature: 16.7°C (62°F)
Dewpoint: 9.4°C (49°F) [RH = 62%]
Pressure (altimeter): 30.14 inches Hg (1020.7 mb)
[Sea-level pressure: 1020.7 mb]
Winds: from the NW (310 degrees) at 8 MPH (7 knots; 3.6 m/s)
Visibility: 10 or more miles (16+ km)
Ceiling: 20000 feet AGL
Clouds: scattered clouds at 1600 feet AGL
broken clouds at 20000 feet AGL
Weather: no significant weather observed at this time

METAR text: KSAN 232351Z 31010KT 10SM SCT017 BKN200 18/09 A3015 RMK AO2 SLP208 T01780094 10189 20172 58010
Conditions at: KSAN (SAN DIEGO , CA, US) observed 2351 UTC 23 March 2019
Temperature: 17.8°C (64°F)
Dewpoint: 9.4°C (49°F) [RH = 58%]
Pressure (altimeter): 30.15 inches Hg (1021.1 mb)
[Sea-level pressure: 1020.8 mb]
Winds: from the NW (310 degrees) at 12 MPH (10 knots; 5.1 m/s)
Visibility: 10 or more miles (16+ km)
Ceiling: 20000 feet AGL
Clouds: scattered clouds at 1700 feet AGL
broken clouds at 20000 feet AGL
Weather: no significant weather observed at this time

METAR text: KSAN 232251Z 29011KT 10SM SCT018 BKN200 18/09 A3016 RMK AO2 SLP212 T01780094
Conditions at: KSAN (SAN DIEGO , CA, US) observed 2251 UTC 23 March 2019
Temperature: 17.8°C (64°F)
Dewpoint: 9.4°C (49°F) [RH = 58%]
Pressure (altimeter): 30.16 inches Hg (1021.4 mb)
[Sea-level pressure: 1021.2 mb]
Winds: from the WNW (290 degrees) at 13 MPH (11 knots; 5.7 m/s)
Visibility: 10 or more miles (16+ km)
Ceiling: 20000 feet AGL
Clouds: scattered clouds at 1800 feet AGL
broken clouds at 20000 feet AGL
Weather: no significant weather observed at this time

METAR text: KSAN 232151Z 28011KT 10SM SCT018 BKN200 18/09 A3017 RMK AO2 SLP215 T01780094
Conditions at: KSAN (SAN DIEGO , CA, US) observed 2151 UTC 23 March 2019
Temperature: 17.8°C (64°F)
Dewpoint: 9.4°C (49°F) [RH = 58%]
Pressure (altimeter): 30.17 inches Hg (1021.8 mb)
[Sea-level pressure: 1021.5 mb]
Winds: from the W (280 degrees) at 13 MPH (11 knots; 5.7 m/s)
Visibility: 10 or more miles (16+ km)
Ceiling: 20000 feet AGL
Clouds: scattered clouds at 1800 feet AGL
broken clouds at 20000 feet AGL
Weather: no significant weather observed at this time

METAR text: KSAN 232051Z 31010G18KT 10SM FEW017 SCT200 18/10 A3018 RMK AO2 SLP218 T01830100 58010
Conditions at: KSAN (SAN DIEGO , CA, US) observed 2051 UTC 23 March 2019
Temperature: 18.3°C (65°F)
Dewpoint: 10.0°C (50°F) [RH = 58%]
Pressure (altimeter): 30.18 inches Hg (1022.1 mb)
[Sea-level pressure: 1021.8 mb]
Winds: from the NW (310 degrees) at 12 MPH (10 knots; 5.1 m/s)
gusting to 21 MPH (18 knots; 9.3 m/s)
Visibility: 10 or more miles (16+ km)
Ceiling: at least 12,000 feet AGL
Clouds: few clouds at 1700 feet AGL
scattered clouds at 20000 feet AGL
Weather: no significant weather observed at this time

METAR text: KSAN 231951Z 30008KT 10SM FEW016 SCT200 18/08 A3019 RMK AO2 SLP222 T01830083
Conditions at: KSAN (SAN DIEGO , CA, US) observed 1951 UTC 23 March 2019
Temperature: 18.3°C (65°F)
Dewpoint: 8.3°C (47°F) [RH = 52%]
Pressure (altimeter): 30.19 inches Hg (1022.4 mb)
[Sea-level pressure: 1022.2 mb]
Winds: from the WNW (300 degrees) at 9 MPH (8 knots; 4.1 m/s)
Visibility: 10 or more miles (16+ km)
Ceiling: at least 12,000 feet AGL
Clouds: few clouds at 1600 feet AGL
scattered clouds at 20000 feet AGL
Weather: no significant weather observed at this time

METAR text: KSAN 231851Z 28008KT 10SM SCT016 SCT200 18/08 A3020 RMK AO2 SLP226 T01780083
Conditions at: KSAN (SAN DIEGO , CA, US) observed 1851 UTC 23 March 2019
Temperature: 17.8°C (64°F)
Dewpoint: 8.3°C (47°F) [RH = 54%]
Pressure (altimeter): 30.20 inches Hg (1022.8 mb)
[Sea-level pressure: 1022.6 mb]
Winds: from the W (280 degrees) at 9 MPH (8 knots; 4.1 m/s)
Visibility: 10 or more miles (16+ km)
Ceiling: at least 12,000 feet AGL
Clouds: scattered clouds at 1600 feet AGL
scattered clouds at 20000 feet AGL
Weather: no significant weather observed at this time

METAR text: KSAN 231829Z 31006KT 10SM SCT016 SCT200 17/09 A3020 RMK AO2 T01720089
Conditions at: KSAN (SAN DIEGO , CA, US) observed 1829 UTC 23 March 2019
Temperature: 17.2°C (63°F)
Dewpoint: 8.9°C (48°F) [RH = 58%]
Pressure (altimeter): 30.20 inches Hg (1022.8 mb)
Winds: from the NW (310 degrees) at 7 MPH (6 knots; 3.1 m/s)
Visibility: 10 or more miles (16+ km)
Ceiling: at least 12,000 feet AGL
Clouds: scattered clouds at 1600 feet AGL
scattered clouds at 20000 feet AGL
Weather: no significant weather observed at this time

METAR text: KSAN 231751Z VRB05KT 10SM BKN016 17/10 A3021 RMK AO2 SLP229 T01720100 10172 20117 53006
Conditions at: KSAN (SAN DIEGO , CA, US) observed 1751 UTC 23 March 2019
Temperature: 17.2°C (63°F)
Dewpoint: 10.0°C (50°F) [RH = 63%]
Pressure (altimeter): 30.21 inches Hg (1023.1 mb)
[Sea-level pressure: 1022.9 mb]
Winds: variable direction winds at 6 MPH (5 knots; 2.6 m/s)
Visibility: 10 or more miles (16+ km)
Ceiling: 1600 feet AGL
Clouds: broken clouds at 1600 feet AGL
Weather: no significant weather observed at this time

METAR text: KSAN 231651Z 26005KT 10SM BKN016 16/11 A3020 RMK AO2 SLP226 T01610106
Conditions at: KSAN (SAN DIEGO , CA, US) observed 1651 UTC 23 March 2019
Temperature: 16.1°C (61°F)
Dewpoint: 10.6°C (51°F) [RH = 70%]
Pressure (altimeter): 30.20 inches Hg (1022.8 mb)
[Sea-level pressure: 1022.6 mb]
Winds: from the W (260 degrees) at 6 MPH (5 knots; 2.6 m/s)
Visibility: 10 or more miles (16+ km)
Ceiling: 1600 feet AGL
Clouds: broken clouds at 1600 feet AGL
Weather: no significant weather observed at this time

METAR text: KSAN 231641Z 22004KT 10SM BKN016 16/11 A3020 RMK AO2 T01560106
Conditions at: KSAN (SAN DIEGO , CA, US) observed 1641 UTC 23 March 2019
Temperature: 15.6°C (60°F)
Dewpoint: 10.6°C (51°F) [RH = 72%]
Pressure (altimeter): 30.20 inches Hg (1022.8 mb)
Winds: from the SW (220 degrees) at 5 MPH (4 knots; 2.1 m/s)
Visibility: 10 or more miles (16+ km)
Ceiling: 1600 feet AGL
Clouds: broken clouds at 1600 feet AGL
Weather: no significant weather observed at this time

METAR text: KSAN 231551Z 20004KT 10SM FEW016 14/10 A3018 RMK AO2 SLP220 T01440100
Conditions at: KSAN (SAN DIEGO , CA, US) observed 1551 UTC 23 March 2019
Temperature: 14.4°C (58°F)
Dewpoint: 10.0°C (50°F) [RH = 75%]
Pressure (altimeter): 30.18 inches Hg (1022.1 mb)
[Sea-level pressure: 1022.0 mb]
Winds: from the SSW (200 degrees) at 5 MPH (4 knots; 2.1 m/s)
Visibility: 10 or more miles (16+ km)
Ceiling: at least 12,000 feet AGL
Clouds: few clouds at 1600 feet AGL
Weather: no significant weather observed at this time

METAR text: KSAN 231451Z 00000KT 10SM FEW016 SCT250 13/09 A3019 RMK AO2 SLP223 T01330094 53011
Conditions at: KSAN (SAN DIEGO , CA, US) observed 1451 UTC 23 March 2019
Temperature: 13.3°C (56°F)
Dewpoint: 9.4°C (49°F) [RH = 77%]
Pressure (altimeter): 30.19 inches Hg (1022.4 mb)
[Sea-level pressure: 1022.3 mb]
Winds: calm
Visibility: 10 or more miles (16+ km)
Ceiling: at least 12,000 feet AGL
Clouds: few clouds at 1600 feet AGL
scattered clouds at 25000 feet AGL
Weather: no significant weather observed at this time

METAR text: KSAN 231351Z 36003KT 10SM SCT016 BKN250 12/08 A3018 RMK AO2 SLP220 T01170083
Conditions at: KSAN (SAN DIEGO , CA, US) observed 1351 UTC 23 March 2019
Temperature: 11.7°C (53°F)
Dewpoint: 8.3°C (47°F) [RH = 80%]
Pressure (altimeter): 30.18 inches Hg (1022.1 mb)
[Sea-level pressure: 1022.0 mb]
Winds: from the N (360 degrees) at 3 MPH (3 knots; 1.5 m/s)
Visibility: 10 or more miles (16+ km)
Ceiling: 25000 feet AGL
Clouds: scattered clouds at 1600 feet AGL
broken clouds at 25000 feet AGL
Weather: no significant weather observed at this time

METAR text: KSAN 231251Z 00000KT 10SM SCT017 BKN250 12/09 A3016 RMK AO2 SLP211 T01220089
Conditions at: KSAN (SAN DIEGO , CA, US) observed 1251 UTC 23 March 2019
Temperature: 12.2°C (54°F)
Dewpoint: 8.9°C (48°F) [RH = 80%]
Pressure (altimeter): 30.16 inches Hg (1021.4 mb)
[Sea-level pressure: 1021.1 mb]
Winds: calm
Visibility: 10 or more miles (16+ km)
Ceiling: 25000 feet AGL
Clouds: scattered clouds at 1700 feet AGL
broken clouds at 25000 feet AGL
Weather: no significant weather observed at this time

METAR text: KSAN 231248Z 00000KT 10SM SCT017 BKN250 12/09 A3016 RMK AO2
Conditions at: KSAN (SAN DIEGO , CA, US) observed 1248 UTC 23 March 2019
Temperature: 12.0°C (54°F)
Dewpoint: 9.0°C (48°F) [RH = 82%]
Pressure (altimeter): 30.16 inches Hg (1021.4 mb)
Winds: calm
Visibility: 10 or more miles (16+ km)
Ceiling: 25000 feet AGL
Clouds: scattered clouds at 1700 feet AGL
broken clouds at 25000 feet AGL
Weather: no significant weather observed at this time

METAR text: KSAN 231151Z 00000KT 10SM BKN017 BKN250 12/09 A3017 RMK AO2 SLP215 T01220089 10144 20122 55008
Conditions at: KSAN (SAN DIEGO , CA, US) observed 1151 UTC 23 March 2019
Temperature: 12.2°C (54°F)
Dewpoint: 8.9°C (48°F) [RH = 80%]
Pressure (altimeter): 30.17 inches Hg (1021.8 mb)
[Sea-level pressure: 1021.5 mb]
Winds: calm
Visibility: 10 or more miles (16+ km)
Ceiling: 1700 feet AGL
Clouds: broken clouds at 1700 feet AGL
broken clouds at 25000 feet AGL
Weather: no significant weather observed at this time

METAR text: KSAN 231051Z 00000KT 10SM FEW018 BKN250 13/09 A3017 RMK AO2 SLP215 T01330094
Conditions at: KSAN (SAN DIEGO , CA, US) observed 1051 UTC 23 March 2019
Temperature: 13.3°C (56°F)
Dewpoint: 9.4°C (49°F) [RH = 77%]
Pressure (altimeter): 30.17 inches Hg (1021.8 mb)
[Sea-level pressure: 1021.5 mb]
Winds: calm
Visibility: 10 or more miles (16+ km)
Ceiling: 25000 feet AGL
Clouds: few clouds at 1800 feet AGL
broken clouds at 25000 feet AGL
Weather: no significant weather observed at this time

METAR text: KSAN 230951Z 00000KT 10SM FEW018 BKN250 13/09 A3018 RMK AO2 SLP219 T01330094
Conditions at: KSAN (SAN DIEGO , CA, US) observed 0951 UTC 23 March 2019
Temperature: 13.3°C (56°F)
Dewpoint: 9.4°C (49°F) [RH = 77%]
Pressure (altimeter): 30.18 inches Hg (1022.1 mb)
[Sea-level pressure: 1021.9 mb]
Winds: calm
Visibility: 10 or more miles (16+ km)
Ceiling: 25000 feet AGL
Clouds: few clouds at 1800 feet AGL
broken clouds at 25000 feet AGL
Weather: no significant weather observed at this time

METAR text: KSAN 230936Z 09003KT 10SM SCT018 BKN250 13/09 A3017 RMK AO2 PRESFR T01330094
Conditions at: KSAN (SAN DIEGO , CA, US) observed 0936 UTC 23 March 2019
Temperature: 13.3°C (56°F)
Dewpoint: 9.4°C (49°F) [RH = 77%]
Pressure (altimeter): 30.17 inches Hg (1021.8 mb)
Winds: from the E (90 degrees) at 3 MPH (3 knots; 1.5 m/s)
Visibility: 10 or more miles (16+ km)
Ceiling: 25000 feet AGL
Clouds: scattered clouds at 1800 feet AGL
broken clouds at 25000 feet AGL
Weather: no significant weather observed at this time

METAR text: KSAN 230913Z 33004KT 10SM BKN018 BKN250 13/09 A3020 RMK AO2 T01280094
Conditions at: KSAN (SAN DIEGO , CA, US) observed 0913 UTC 23 March 2019
Temperature: 12.8°C (55°F)
Dewpoint: 9.4°C (49°F) [RH = 80%]
Pressure (altimeter): 30.20 inches Hg (1022.8 mb)
Winds: from the NNW (330 degrees) at 5 MPH (4 knots; 2.1 m/s)
Visibility: 10 or more miles (16+ km)
Ceiling: 1800 feet AGL
Clouds: broken clouds at 1800 feet AGL
broken clouds at 25000 feet AGL
Weather: no significant weather observed at this time

METAR text: KSAN 230851Z 33003KT 10SM BKN250 13/09 A3019 RMK AO2 SLP222 T01330094 55003
Conditions at: KSAN (SAN DIEGO , CA, US) observed 0851 UTC 23 March 2019
Temperature: 13.3°C (56°F)
Dewpoint: 9.4°C (49°F) [RH = 77%]
Pressure (altimeter): 30.19 inches Hg (1022.4 mb)
[Sea-level pressure: 1022.2 mb]
Winds: from the NNW (330 degrees) at 3 MPH (3 knots; 1.5 m/s)
Visibility: 10 or more miles (16+ km)
Ceiling: 25000 feet AGL
Clouds: broken clouds at 25000 feet AGL
Weather: no significant weather observed at this time

METAR text: KSAN 230751Z 00000KT 10SM FEW017 FEW250 14/10 A3018 RMK AO2 SLP220 T01390100 401780111
Conditions at: KSAN (SAN DIEGO , CA, US) observed 0751 UTC 23 March 2019
Temperature: 13.9°C (57°F)
Dewpoint: 10.0°C (50°F) [RH = 77%]
Pressure (altimeter): 30.18 inches Hg (1022.1 mb)
[Sea-level pressure: 1022.0 mb]
Winds: calm
Visibility: 10 or more miles (16+ km)
Ceiling: at least 12,000 feet AGL
Clouds: few clouds at 1700 feet AGL
few clouds at 25000 feet AGL
Weather: no significant weather observed at this time

METAR text: KSAN 230651Z 00000KT 10SM FEW017 SCT250 14/10 A3019 RMK AO2 SLP222 T01440100
Conditions at: KSAN (SAN DIEGO , CA, US) observed 0651 UTC 23 March 2019
Temperature: 14.4°C (58°F)
Dewpoint: 10.0°C (50°F) [RH = 75%]
Pressure (altimeter): 30.19 inches Hg (1022.4 mb)
[Sea-level pressure: 1022.2 mb]
Winds: calm
Visibility: 10 or more miles (16+ km)
Ceiling: at least 12,000 feet AGL
Clouds: few clouds at 1700 feet AGL
scattered clouds at 25000 feet AGL
Weather: no significant weather observed at this time

METAR text: KSAN 230551Z 00000KT 10SM FEW017 BKN250 14/10 A3020 RMK AO2 SLP225 T01440100 10167 20144 51011
Conditions at: KSAN (SAN DIEGO , CA, US) observed 0551 UTC 23 March 2019
Temperature: 14.4°C (58°F)
Dewpoint: 10.0°C (50°F) [RH = 75%]
Pressure (altimeter): 30.20 inches Hg (1022.8 mb)
[Sea-level pressure: 1022.5 mb]
Winds: calm
Visibility: 10 or more miles (16+ km)
Ceiling: 25000 feet AGL
Clouds: few clouds at 1700 feet AGL
broken clouds at 25000 feet AGL
Weather: no significant weather observed at this time

METAR text: KSAN 230451Z 36004KT 10SM SCT017 BKN250 15/11 A3020 RMK AO2 SLP225 T01500106
Conditions at: KSAN (SAN DIEGO , CA, US) observed 0451 UTC 23 March 2019
Temperature: 15.0°C (59°F)
Dewpoint: 10.6°C (51°F) [RH = 75%]
Pressure (altimeter): 30.20 inches Hg (1022.8 mb)
[Sea-level pressure: 1022.5 mb]
Winds: from the N (360 degrees) at 5 MPH (4 knots; 2.1 m/s)
Visibility: 10 or more miles (16+ km)
Ceiling: 25000 feet AGL
Clouds: scattered clouds at 1700 feet AGL
broken clouds at 25000 feet AGL
Weather: no significant weather observed at this time

METAR text: KSAN 230444Z 01003KT 10SM SCT017 BKN250 15/11 A3020 RMK AO2 T01500106
Conditions at: KSAN (SAN DIEGO , CA, US) observed 0444 UTC 23 March 2019
Temperature: 15.0°C (59°F)
Dewpoint: 10.6°C (51°F) [RH = 75%]
Pressure (altimeter): 30.20 inches Hg (1022.8 mb)
Winds: from the N (10 degrees) at 3 MPH (3 knots; 1.5 m/s)
Visibility: 10 or more miles (16+ km)
Ceiling: 25000 feet AGL
Clouds: scattered clouds at 1700 feet AGL
broken clouds at 25000 feet AGL
Weather: no significant weather observed at this time

METAR text: KSAN 230351Z 33007KT 10SM BKN017 BKN250 15/11 A3018 RMK AO2 SLP220 T01500106
Conditions at: KSAN (SAN DIEGO , CA, US) observed 0351 UTC 23 March 2019
Temperature: 15.0°C (59°F)
Dewpoint: 10.6°C (51°F) [RH = 75%]
Pressure (altimeter): 30.18 inches Hg (1022.1 mb)
[Sea-level pressure: 1022.0 mb]
Winds: from the NNW (330 degrees) at 8 MPH (7 knots; 3.6 m/s)
Visibility: 10 or more miles (16+ km)
Ceiling: 1700 feet AGL
Clouds: broken clouds at 1700 feet AGL
broken clouds at 25000 feet AGL
Weather: no significant weather observed at this time

METAR text: KSAN 230251Z 31008KT 10SM BKN018 BKN250 15/10 A3017 RMK AO2 SLP214 T01500100 53005
Conditions at: KSAN (SAN DIEGO , CA, US) observed 0251 UTC 23 March 2019
Temperature: 15.0°C (59°F)
Dewpoint: 10.0°C (50°F) [RH = 72%]
Pressure (altimeter): 30.17 inches Hg (1021.8 mb)
[Sea-level pressure: 1021.4 mb]
Winds: from the NW (310 degrees) at 9 MPH (8 knots; 4.1 m/s)
Visibility: 10 or more miles (16+ km)
Ceiling: 1800 feet AGL
Clouds: broken clouds at 1800 feet AGL
broken clouds at 25000 feet AGL
Weather: no significant weather observed at this time

METAR text: KSAN 230242Z 32008KT 10SM BKN018 BKN250 16/10 A3017 RMK AO2 T01560100
Conditions at: KSAN (SAN DIEGO , CA, US) observed 0242 UTC 23 March 2019
Temperature: 15.6°C (60°F)
Dewpoint: 10.0°C (50°F) [RH = 69%]
Pressure (altimeter): 30.17 inches Hg (1021.8 mb)
Winds: from the NW (320 degrees) at 9 MPH (8 knots; 4.1 m/s)
Visibility: 10 or more miles (16+ km)
Ceiling: 1800 feet AGL
Clouds: broken clouds at 1800 feet AGL
broken clouds at 25000 feet AGL
Weather: no significant weather observed at this time

METAR text: KSAN 230151Z 32006KT 10SM FEW017 FEW026 SCT250 16/10 A3015 RMK AO2 SLP209 T01560100
Conditions at: KSAN (SAN DIEGO , CA, US) observed 0151 UTC 23 March 2019
Temperature: 15.6°C (60°F)
Dewpoint: 10.0°C (50°F) [RH = 69%]
Pressure (altimeter): 30.15 inches Hg (1021.1 mb)
[Sea-level pressure: 1020.9 mb]
Winds: from the NW (320 degrees) at 7 MPH (6 knots; 3.1 m/s)
Visibility: 10 or more miles (16+ km)
Ceiling: at least 12,000 feet AGL
Clouds: few clouds at 1700 feet AGL
few clouds at 2600 feet AGL
scattered clouds at 25000 feet AGL
Weather: no significant weather observed at this time

METAR text: KSAN 230051Z 30007KT 10SM FEW015 FEW026 BKN250 17/09 A3015 RMK AO2 SLP208 FU FEW015 T01670094
Conditions at: KSAN (SAN DIEGO , CA, US) observed 0051 UTC 23 March 2019
Temperature: 16.7°C (62°F)
Dewpoint: 9.4°C (49°F) [RH = 62%]
Pressure (altimeter): 30.15 inches Hg (1021.1 mb)
[Sea-level pressure: 1020.8 mb]
Winds: from the WNW (300 degrees) at 8 MPH (7 knots; 3.6 m/s)
Visibility: 10 or more miles (16+ km)
Ceiling: 25000 feet AGL
Clouds: few clouds at 1500 feet AGL
few clouds at 2600 feet AGL
broken clouds at 25000 feet AGL
Weather: no significant weather observed at this time

METAR text: KSAN 222351Z 30012KT 10SM FEW026 BKN250 17/09 A3015 RMK AO2 SLP209 T01670089 10178 20156 56008
Conditions at: KSAN (SAN DIEGO , CA, US) observed 2351 UTC 22 March 2019
Temperature: 16.7°C (62°F)
Dewpoint: 8.9°C (48°F) [RH = 60%]
Pressure (altimeter): 30.15 inches Hg (1021.1 mb)
[Sea-level pressure: 1020.9 mb]
Winds: from the WNW (300 degrees) at 14 MPH (12 knots; 6.2 m/s)
Visibility: 10 or more miles (16+ km)
Ceiling: 25000 feet AGL
Clouds: few clouds at 2600 feet AGL
broken clouds at 25000 feet AGL
Weather: no significant weather observed at this time

METAR text: KSAN 222251Z 30011KT 10SM FEW026 SCT250 17/08 A3015 RMK AO2 SLP210 T01720083
Conditions at: KSAN (SAN DIEGO , CA, US) observed 2251 UTC 22 March 2019
Temperature: 17.2°C (63°F)
Dewpoint: 8.3°C (47°F) [RH = 56%]
Pressure (altimeter): 30.15 inches Hg (1021.1 mb)
[Sea-level pressure: 1021.0 mb]
Winds: from the WNW (300 degrees) at 13 MPH (11 knots; 5.7 m/s)
Visibility: 10 or more miles (16+ km)
Ceiling: at least 12,000 feet AGL
Clouds: few clouds at 2600 feet AGL
scattered clouds at 25000 feet AGL
Weather: no significant weather observed at this time

METAR text: KSAN 222151Z 31009KT 10SM FEW026 FEW250 18/07 A3016 RMK AO2 SLP212 T01780072
Conditions at: KSAN (SAN DIEGO , CA, US) observed 2151 UTC 22 March 2019
Temperature: 17.8°C (64°F)
Dewpoint: 7.2°C (45°F) [RH = 50%]
Pressure (altimeter): 30.16 inches Hg (1021.4 mb)
[Sea-level pressure: 1021.2 mb]
Winds: from the NW (310 degrees) at 10 MPH (9 knots; 4.6 m/s)
Visibility: 10 or more miles (16+ km)
Ceiling: at least 12,000 feet AGL
Clouds: few clouds at 2600 feet AGL
few clouds at 25000 feet AGL
Weather: no significant weather observed at this time

METAR text: KSAN 222051Z 30010G16KT 10SM FEW026 FEW250 17/08 A3017 RMK AO2 SLP217 T01720078 58011
Conditions at: KSAN (SAN DIEGO , CA, US) observed 2051 UTC 22 March 2019
Temperature: 17.2°C (63°F)
Dewpoint: 7.8°C (46°F) [RH = 54%]
Pressure (altimeter): 30.17 inches Hg (1021.8 mb)
[Sea-level pressure: 1021.7 mb]
Winds: from the WNW (300 degrees) at 12 MPH (10 knots; 5.1 m/s)
gusting to 18 MPH (16 knots; 8.2 m/s)
Visibility: 10 or more miles (16+ km)
Ceiling: at least 12,000 feet AGL
Clouds: few clouds at 2600 feet AGL
few clouds at 25000 feet AGL
Weather: no significant weather observed at this time

Forecast for: KSAN (SAN DIEGO , CA, US)
Text: KSAN 240733Z 2408/2512 VRB04KT P6SM BKN017
Forecast period: 0800 to 1700 UTC 24 March 2019
Forecast type: FROM: standard forecast or significant change
Winds: variable direction winds at 5 MPH (4 knots; 2.1 m/s)
Visibility: 6 or more miles 10+ km)
Ceiling: 1700 feet AGL
Clouds: broken clouds at 1700 feet AGL
Weather: no significant weather forecast for this period
Text: FM241700 29005KT P6SM SCT020
Forecast period: 1700 to 1900 UTC 24 March 2019
Forecast type: FROM: standard forecast or significant change
Winds: from the WNW (290 degrees) at 6 MPH (5 knots; 2.6 m/s)
Visibility: 6 or more miles 10+ km)
Ceiling: at least 12,000 feet AGL
Clouds: scattered clouds at 2000 feet AGL
Weather: no significant weather forecast for this period
Text: FM241900 29010KT P6SM FEW022
Forecast period: 1900 UTC 24 March 2019 to 0300 UTC 25 March 2019
Forecast type: FROM: standard forecast or significant change
Winds: from the WNW (290 degrees) at 12 MPH (10 knots; 5.1 m/s)
Visibility: 6 or more miles 10+ km)
Ceiling: at least 12,000 feet AGL
Clouds: few clouds at 2200 feet AGL
Weather: no significant weather forecast for this period
Text: FM250300 28005KT P6SM FEW020
Forecast period: 0300 to 1200 UTC 25 March 2019
Forecast type: FROM: standard forecast or significant change
Winds: from the W (280 degrees) at 6 MPH (5 knots; 2.6 m/s)
Visibility: 6 or more miles 10+ km)
Ceiling: at least 12,000 feet AGL
Clouds: few clouds at 2000 feet AGL
Weather: no significant weather forecast for this period